Terminal Aerodrome Forecast
Issued by NWS

Home | Current Version | Previous Version | Text Only | Print | Product List | Glossary Off
Versions: 1 2 3 4 5 6 7 8 9 10 11 12 13 14 15 16 17 18

110
FTUS43 KGRB 260038 AAA
TAFMTW
TAF AMD
KMTW 260038Z 2601/2624 02014G22KT P6SM BKN008 BKN050
     FM260400 03013G20KT 6SM BR BKN009 OVC040
     FM260700 02018G24KT P6SM SCT005 OVC008
     FM261500 04014G23KT P6SM BKN015 OVC035
     FM262200 04013G22KT P6SM BKN035 OVC050=

USA.gov is the U.S. government's official web portal to all federal, state and local government web resources and services.